sensor_id;sensor_type;location;lat;lon;timestamp;pressure;altitude;pressure_sealevel;temperature;humidity
56420;BME280;42323;52.170;7.538;2022-07-29T00:00:59;101265.34;;;18.41;100.00
56420;BME280;42323;52.170;7.538;2022-07-29T00:03:25;101251.69;;;18.42;100.00
56420;BME280;42323;52.170;7.538;2022-07-29T00:05:52;101263.47;;;18.41;100.00
56420;BME280;42323;52.170;7.538;2022-07-29T00:08:19;101256.22;;;18.42;100.00
56420;BME280;42323;52.170;7.538;2022-07-29T00:10:46;101259.19;;;18.47;100.00
56420;BME280;42323;52.170;7.538;2022-07-29T00:13:13;101257.31;;;18.47;99.70
56420;BME280;42323;52.170;7.538;2022-07-29T00:15:40;101252.19;;;18.52;100.00
56420;BME280;42323;52.170;7.538;2022-07-29T00:18:07;101245.31;;;18.50;100.00
56420;BME280;42323;52.170;7.538;2022-07-29T00:20:34;101245.72;;;18.47;100.00
56420;BME280;42323;52.170;7.538;2022-07-29T00:23:00;101230.28;;;18.34;100.00
56420;BME280;42323;52.170;7.538;2022-07-29T00:25:27;101231.28;;;18.33;100.00
56420;BME280;42323;52.170;7.538;2022-07-29T00:27:54;101228.31;;;18.28;100.00
56420;BME280;42323;52.170;7.538;2022-07-29T00:30:21;101229.75;;;18.24;100.00
56420;BME280;42323;52.170;7.538;2022-07-29T00:32:48;101210.00;;;18.17;100.00
56420;BME280;42323;52.170;7.538;2022-07-29T00:35:15;101220.38;;;18.20;100.00
56420;BME280;42323;52.170;7.538;2022-07-29T00:38:00;101216.63;;;18.14;100.00
56420;BME280;42323;52.170;7.538;2022-07-29T00:40:27;101219.84;;;18.10;100.00
56420;BME280;42323;52.170;7.538;2022-07-29T00:42:54;101219.97;;;18.01;100.00
56420;BME280;42323;52.170;7.538;2022-07-29T00:45:21;101207.75;;;17.99;100.00
56420;BME280;42323;52.170;7.538;2022-07-29T00:47:49;101213.56;;;18.02;100.00
56420;BME280;42323;52.170;7.538;2022-07-29T00:50:16;101215.63;;;18.00;100.00
56420;BME280;42323;52.170;7.538;2022-07-29T00:52:44;101205.25;;;17.97;100.00
56420;BME280;42323;52.170;7.538;2022-07-29T00:55:13;101214.72;;;17.93;100.00
56420;BME280;42323;52.170;7.538;2022-07-29T00:57:42;101208.69;;;17.91;100.00
56420;BME280;42323;52.170;7.538;2022-07-29T01:00:13;101211.78;;;17.88;100.00
56420;BME280;42323;52.170;7.538;2022-07-29T01:02:41;101209.63;;;17.84;100.00
56420;BME280;42323;52.170;7.538;2022-07-29T01:05:08;101206.75;;;17.85;100.00
56420;BME280;42323;52.170;7.538;2022-07-29T01:07:36;101210.84;;;17.81;100.00
56420;BME280;42323;52.170;7.538;2022-07-29T01:10:04;101194.44;;;17.76;100.00
56420;BME280;42323;52.170;7.538;2022-07-29T01:12:33;101200.84;;;17.75;100.00
56420;BME280;42323;52.170;7.538;2022-07-29T01:15:03;101186.75;;;17.73;100.00
56420;BME280;42323;52.170;7.538;2022-07-29T01:17:39;101192.78;;;17.75;100.00
56420;BME280;42323;52.170;7.538;2022-07-29T01:21:15;101193.78;;;17.74;100.00
56420;BME280;42323;52.170;7.538;2022-07-29T01:26:33;101182.22;;;17.73;100.00
56420;BME280;42323;52.170;7.538;2022-07-29T01:29:11;101175.34;;;17.71;100.00
56420;BME280;42323;52.170;7.538;2022-07-29T01:34:48;101168.00;;;17.65;100.00
56420;BME280;42323;52.170;7.538;2022-07-29T01:37:31;101161.31;;;17.61;100.00
56420;BME280;42323;52.170;7.538;2022-07-29T01:40:03;101151.97;;;17.57;100.00
56420;BME280;42323;52.170;7.538;2022-07-29T01:42:38;101160.81;;;17.51;100.00
56420;BME280;42323;52.170;7.538;2022-07-29T01:47:56;101157.28;;;17.35;100.00
56420;BME280;42323;52.170;7.538;2022-07-29T01:50:33;101158.69;;;17.31;100.00
56420;BME280;42323;52.170;7.538;2022-07-29T01:53:07;101154.53;;;17.29;100.00
56420;BME280;42323;52.170;7.538;2022-07-29T01:55:39;101156.84;;;17.32;100.00
56420;BME280;42323;52.170;7.538;2022-07-29T01:58:07;101154.06;;;17.25;100.00
56420;BME280;42323;52.170;7.538;2022-07-29T02:00:35;101157.78;;;17.24;100.00
56420;BME280;42323;52.170;7.538;2022-07-29T02:03:09;101143.69;;;17.22;100.00
56420;BME280;42323;52.170;7.538;2022-07-29T02:05:39;101154.25;;;17.24;100.00
56420;BME280;42323;52.170;7.538;2022-07-29T02:08:08;101147.66;;;17.26;100.00
56420;BME280;42323;52.170;7.538;2022-07-29T02:10:37;101138.97;;;17.24;100.00
56420;BME280;42323;52.170;7.538;2022-07-29T02:13:07;101140.63;;;17.25;100.00
56420;BME280;42323;52.170;7.538;2022-07-29T02:15:36;101143.88;;;17.21;100.00
56420;BME280;42323;52.170;7.538;2022-07-29T02:18:16;101137.00;;;17.18;100.00
56420;BME280;42323;52.170;7.538;2022-07-29T02:20:48;101132.31;;;17.20;100.00
56420;BME280;42323;52.170;7.538;2022-07-29T02:23:18;101121.44;;;17.13;100.00
56420;BME280;42323;52.170;7.538;2022-07-29T02:25:49;101130.59;;;17.19;100.00
56420;BME280;42323;52.170;7.538;2022-07-29T02:28:18;101134.69;;;17.15;100.00
56420;BME280;42323;52.170;7.538;2022-07-29T02:30:46;101130.91;;;17.09;100.00
56420;BME280;42323;52.170;7.538;2022-07-29T02:33:16;101139.59;;;17.11;100.00
56420;BME280;42323;52.170;7.538;2022-07-29T02:35:46;101133.41;;;17.11;100.00
56420;BME280;42323;52.170;7.538;2022-07-29T02:38:17;101124.63;;;17.02;100.00
56420;BME280;42323;52.170;7.538;2022-07-29T02:41:35;101127.13;;;17.04;100.00
56420;BME280;42323;52.170;7.538;2022-07-29T02:44:11;101128.50;;;17.00;100.00
56420;BME280;42323;52.170;7.538;2022-07-29T02:52:11;101129.03;;;16.95;100.00
56420;BME280;42323;52.170;7.538;2022-07-29T02:54:47;101134.41;;;16.95;100.00
56420;BME280;42323;52.170;7.538;2022-07-29T02:58:00;101124.41;;;16.89;100.00
56420;BME280;42323;52.170;7.538;2022-07-29T03:00:29;101122.09;;;16.86;100.00
56420;BME280;42323;52.170;7.538;2022-07-29T03:03:03;101115.91;;;16.86;100.00
56420;BME280;42323;52.170;7.538;2022-07-29T03:05:31;101127.75;;;16.91;100.00
56420;BME280;42323;52.170;7.538;2022-07-29T03:08:01;101121.66;;;16.82;100.00
56420;BME280;42323;52.170;7.538;2022-07-29T03:10:30;101115.44;;;16.82;100.00
56420;BME280;42323;52.170;7.538;2022-07-29T03:12:58;101122.66;;;16.81;100.00
56420;BME280;42323;52.170;7.538;2022-07-29T03:15:25;101110.63;;;16.77;100.00
56420;BME280;42323;52.170;7.538;2022-07-29T03:17:52;101116.66;;;16.79;100.00
56420;BME280;42323;52.170;7.538;2022-07-29T03:20:20;101114.34;;;16.76;100.00
56420;BME280;42323;52.170;7.538;2022-07-29T03:22:47;101104.31;;;16.70;100.00
56420;BME280;42323;52.170;7.538;2022-07-29T03:25:18;101119.97;;;16.67;100.00
56420;BME280;42323;52.170;7.538;2022-07-29T03:27:46;101111.91;;;16.67;100.00
56420;BME280;42323;52.170;7.538;2022-07-29T03:30:14;101116.59;;;16.65;100.00
56420;BME280;42323;52.170;7.538;2022-07-29T03:32:49;101118.63;;;16.63;100.00
56420;BME280;42323;52.170;7.538;2022-07-29T03:35:18;101114.47;;;16.60;100.00
56420;BME280;42323;52.170;7.538;2022-07-29T03:37:49;101120.84;;;16.59;100.00
56420;BME280;42323;52.170;7.538;2022-07-29T03:40:22;101124.75;;;16.57;100.00
56420;BME280;42323;52.170;7.538;2022-07-29T03:42:51;101127.25;;;16.58;100.00
56420;BME280;42323;52.170;7.538;2022-07-29T03:45:21;101120.19;;;16.57;100.00
56420;BME280;42323;52.170;7.538;2022-07-29T03:47:53;101123.81;;;16.64;100.00
56420;BME280;42323;52.170;7.538;2022-07-29T03:50:27;101120.47;;;16.62;100.00
56420;BME280;42323;52.170;7.538;2022-07-29T03:52:55;101118.81;;;16.61;100.00
56420;BME280;42323;52.170;7.538;2022-07-29T03:55:22;101119.38;;;16.57;100.00
56420;BME280;42323;52.170;7.538;2022-07-29T03:57:49;101120.19;;;16.57;100.00
56420;BME280;42323;52.170;7.538;2022-07-29T04:00:16;101116.22;;;16.53;100.00
56420;BME280;42323;52.170;7.538;2022-07-29T04:02:44;101114.38;;;16.53;100.00
56420;BME280;42323;52.170;7.538;2022-07-29T04:05:16;101122.09;;;16.48;100.00
56420;BME280;42323;52.170;7.538;2022-07-29T04:07:47;101121.47;;;16.46;100.00
56420;BME280;42323;52.170;7.538;2022-07-29T04:10:15;101128.03;;;16.44;100.00
56420;BME280;42323;52.170;7.538;2022-07-29T04:12:58;101121.38;;;16.40;100.00
56420;BME280;42323;52.170;7.538;2022-07-29T04:15:25;101126.06;;;16.38;100.00
56420;BME280;42323;52.170;7.538;2022-07-29T04:17:56;101123.59;;;16.36;100.00
56420;BME280;42323;52.170;7.538;2022-07-29T04:20:23;101125.25;;;16.37;100.00
56420;BME280;42323;52.170;7.538;2022-07-29T04:22:50;101130.25;;;16.40;100.00
56420;BME280;42323;52.170;7.538;2022-07-29T04:25:16;101125.34;;;16.44;100.00
56420;BME280;42323;52.170;7.538;2022-07-29T04:27:43;101126.38;;;16.43;100.00
56420;BME280;42323;52.170;7.538;2022-07-29T04:30:31;101126.19;;;16.44;100.00
56420;BME280;42323;52.170;7.538;2022-07-29T04:32:59;101125.44;;;16.50;100.00
56420;BME280;42323;52.170;7.538;2022-07-29T04:35:28;101127.88;;;16.60;100.00
56420;BME280;42323;52.170;7.538;2022-07-29T04:37:55;101130.19;;;16.63;100.00
56420;BME280;42323;52.170;7.538;2022-07-29T04:40:22;101126.16;;;16.67;100.00
56420;BME280;42323;52.170;7.538;2022-07-29T04:42:49;101116.78;;;16.63;100.00
56420;BME280;42323;52.170;7.538;2022-07-29T04:45:15;101112.44;;;16.62;100.00
56420;BME280;42323;52.170;7.538;2022-07-29T04:47:48;101112.06;;;16.65;100.00
56420;BME280;42323;52.170;7.538;2022-07-29T04:50:15;101113.38;;;16.69;100.00
56420;BME280;42323;52.170;7.538;2022-07-29T04:52:41;101114.22;;;16.70;100.00
56420;BME280;42323;52.170;7.538;2022-07-29T04:55:08;101115.50;;;16.74;100.00
56420;BME280;42323;52.170;7.538;2022-07-29T04:57:36;101119.16;;;16.81;100.00
56420;BME280;42323;52.170;7.538;2022-07-29T05:00:03;101101.09;;;16.75;100.00
56420;BME280;42323;52.170;7.538;2022-07-29T05:02:31;101116.66;;;16.79;100.00
56420;BME280;42323;52.170;7.538;2022-07-29T05:04:57;101108.41;;;16.81;100.00
56420;BME280;42323;52.170;7.538;2022-07-29T05:07:24;101110.91;;;16.82;100.00
56420;BME280;42323;52.170;7.538;2022-07-29T05:09:51;101112.38;;;16.85;100.00
56420;BME280;42323;52.170;7.538;2022-07-29T05:12:19;101125.53;;;16.95;100.00
56420;BME280;42323;52.170;7.538;2022-07-29T05:14:45;101126.47;;;17.02;100.00
56420;BME280;42323;52.170;7.538;2022-07-29T05:17:12;101124.81;;;17.01;100.00
56420;BME280;42323;52.170;7.538;2022-07-29T05:19:39;101130.19;;;17.01;100.00
56420;BME280;42323;52.170;7.538;2022-07-29T05:22:06;101126.56;;;17.08;100.00
56420;BME280;42323;52.170;7.538;2022-07-29T05:24:33;101123.75;;;17.17;100.00
56420;BME280;42323;52.170;7.538;2022-07-29T05:26:59;101124.88;;;17.22;100.00
56420;BME280;42323;52.170;7.538;2022-07-29T05:29:26;101126.38;;;17.25;100.00
56420;BME280;42323;52.170;7.538;2022-07-29T05:32:12;101127.91;;;17.34;100.00
56420;BME280;42323;52.170;7.538;2022-07-29T05:34:39;101118.63;;;17.36;100.00
56420;BME280;42323;52.170;7.538;2022-07-29T05:37:21;101130.59;;;17.49;100.00
56420;BME280;42323;52.170;7.538;2022-07-29T05:39:47;101125.22;;;17.49;100.00
56420;BME280;42323;52.170;7.538;2022-07-29T05:42:21;101132.25;;;17.50;100.00
56420;BME280;42323;52.170;7.538;2022-07-29T05:44:48;101128.09;;;17.47;100.00
56420;BME280;42323;52.170;7.538;2022-07-29T05:47:15;101142.13;;;17.64;100.00
56420;BME280;42323;52.170;7.538;2022-07-29T05:49:42;101140.38;;;17.71;100.00
56420;BME280;42323;52.170;7.538;2022-07-29T05:52:09;101149.09;;;17.73;100.00
56420;BME280;42323;52.170;7.538;2022-07-29T05:54:36;101158.25;;;17.79;100.00
56420;BME280;42323;52.170;7.538;2022-07-29T05:57:03;101151.41;;;17.76;100.00
56420;BME280;42323;52.170;7.538;2022-07-29T05:59:30;101167.53;;;17.61;100.00
56420;BME280;42323;52.170;7.538;2022-07-29T06:01:57;101168.84;;;17.65;100.00
56420;BME280;42323;52.170;7.538;2022-07-29T06:04:24;101176.72;;;17.67;100.00
56420;BME280;42323;52.170;7.538;2022-07-29T06:06:51;101171.06;;;17.62;100.00
56420;BME280;42323;52.170;7.538;2022-07-29T06:09:18;101167.81;;;17.66;100.00
56420;BME280;42323;52.170;7.538;2022-07-29T06:11:45;101176.56;;;17.68;100.00
56420;BME280;42323;52.170;7.538;2022-07-29T06:14:11;101176.44;;;17.62;100.00
56420;BME280;42323;52.170;7.538;2022-07-29T06:16:39;101171.25;;;17.60;100.00
56420;BME280;42323;52.170;7.538;2022-07-29T06:19:06;101172.72;;;17.63;100.00
56420;BME280;42323;52.170;7.538;2022-07-29T06:21:34;101185.91;;;17.72;100.00
56420;BME280;42323;52.170;7.538;2022-07-29T06:24:07;101185.16;;;17.64;100.00
56420;BME280;42323;52.170;7.538;2022-07-29T06:26:34;101196.47;;;17.59;100.00
56420;BME280;42323;52.170;7.538;2022-07-29T06:29:06;101192.59;;;17.47;100.00
56420;BME280;42323;52.170;7.538;2022-07-29T06:31:34;101200.03;;;17.45;100.00
56420;BME280;42323;52.170;7.538;2022-07-29T06:34:01;101193.25;;;17.49;100.00
56420;BME280;42323;52.170;7.538;2022-07-29T06:36:29;101192.94;;;17.59;100.00
56420;BME280;42323;52.170;7.538;2022-07-29T06:38:56;101205.56;;;17.58;100.00
56420;BME280;42323;52.170;7.538;2022-07-29T06:41:23;101200.28;;;17.50;100.00
56420;BME280;42323;52.170;7.538;2022-07-29T06:43:50;101204.72;;;17.58;100.00
56420;BME280;42323;52.170;7.538;2022-07-29T06:46:22;101193.81;;;17.44;100.00
56420;BME280;42323;52.170;7.538;2022-07-29T06:48:50;101199.72;;;17.55;100.00
56420;BME280;42323;52.170;7.538;2022-07-29T06:51:19;101201.41;;;17.56;100.00
56420;BME280;42323;52.170;7.538;2022-07-29T06:53:49;101198.25;;;17.67;100.00
56420;BME280;42323;52.170;7.538;2022-07-29T06:56:32;101196.75;;;17.79;100.00
56420;BME280;42323;52.170;7.538;2022-07-29T06:59:09;101191.09;;;17.89;100.00
56420;BME280;42323;52.170;7.538;2022-07-29T07:01:38;101188.66;;;17.94;100.00
56420;BME280;42323;52.170;7.538;2022-07-29T07:04:06;101197.81;;;17.99;100.00
56420;BME280;42323;52.170;7.538;2022-07-29T07:06:37;101202.41;;;18.05;100.00
56420;BME280;42323;52.170;7.538;2022-07-29T07:09:04;101198.50;;;18.08;100.00
56420;BME280;42323;52.170;7.538;2022-07-29T07:11:31;101198.78;;;18.13;100.00
56420;BME280;42323;52.170;7.538;2022-07-29T07:14:00;101196.34;;;18.18;100.00
56420;BME280;42323;52.170;7.538;2022-07-29T07:16:30;101188.34;;;18.25;100.00
56420;BME280;42323;52.170;7.538;2022-07-29T07:18:59;101195.00;;;18.29;100.00
56420;BME280;42323;52.170;7.538;2022-07-29T07:21:26;101195.00;;;18.29;100.00
56420;BME280;42323;52.170;7.538;2022-07-29T07:23:56;101194.06;;;18.36;100.00
56420;BME280;42323;52.170;7.538;2022-07-29T07:26:22;101197.44;;;18.45;100.00
56420;BME280;42323;52.170;7.538;2022-07-29T07:28:49;101193.91;;;18.45;100.00
56420;BME280;42323;52.170;7.538;2022-07-29T07:31:16;101201.59;;;18.48;100.00
56420;BME280;42323;52.170;7.538;2022-07-29T07:33:43;101195.81;;;18.51;100.00
56420;BME280;42323;52.170;7.538;2022-07-29T07:36:10;101204.53;;;18.53;100.00
56420;BME280;42323;52.170;7.538;2022-07-29T07:38:38;101201.28;;;18.57;100.00
56420;BME280;42323;52.170;7.538;2022-07-29T07:41:05;101198.47;;;18.65;100.00
56420;BME280;42323;52.170;7.538;2022-07-29T07:43:32;101186.69;;;18.66;100.00
56420;BME280;42323;52.170;7.538;2022-07-29T07:46:00;101184.03;;;18.73;100.00
56420;BME280;42323;52.170;7.538;2022-07-29T07:48:27;101189.22;;;18.75;100.00
56420;BME280;42323;52.170;7.538;2022-07-29T07:50:55;101184.84;;;18.74;100.00
56420;BME280;42323;52.170;7.538;2022-07-29T07:53:22;101190.03;;;18.75;100.00
56420;BME280;42323;52.170;7.538;2022-07-29T07:55:49;101184.94;;;18.80;100.00
56420;BME280;42323;52.170;7.538;2022-07-29T07:58:36;101188.28;;;18.89;100.00
56420;BME280;42323;52.170;7.538;2022-07-29T08:01:03;101192.47;;;18.91;100.00
56420;BME280;42323;52.170;7.538;2022-07-29T08:03:31;101195.38;;;18.96;100.00
56420;BME280;42323;52.170;7.538;2022-07-29T08:05:59;101200.22;;;19.01;100.00
56420;BME280;42323;52.170;7.538;2022-07-29T08:08:26;101192.38;;;19.06;100.00
56420;BME280;42323;52.170;7.538;2022-07-29T08:10:52;101195.09;;;19.13;100.00
56420;BME280;42323;52.170;7.538;2022-07-29T08:13:21;101196.16;;;19.18;100.00
56420;BME280;42323;52.170;7.538;2022-07-29T08:15:49;101200.09;;;19.22;100.00
56420;BME280;42323;52.170;7.538;2022-07-29T08:18:26;101199.53;;;19.27;100.00
56420;BME280;42323;52.170;7.538;2022-07-29T08:20:53;101207.03;;;19.32;100.00
56420;BME280;42323;52.170;7.538;2022-07-29T08:23:20;101206.84;;;19.40;100.00
56420;BME280;42323;52.170;7.538;2022-07-29T08:25:47;101206.03;;;19.39;100.00
56420;BME280;42323;52.170;7.538;2022-07-29T08:28:16;101209.78;;;19.45;100.00
56420;BME280;42323;52.170;7.538;2022-07-29T08:30:43;101209.16;;;19.43;100.00
56420;BME280;42323;52.170;7.538;2022-07-29T08:33:10;101210.19;;;19.42;100.00
56420;BME280;42323;52.170;7.538;2022-07-29T08:35:38;101209.94;;;19.37;100.00
56420;BME280;42323;52.170;7.538;2022-07-29T08:38:05;101209.75;;;19.38;100.00
56420;BME280;42323;52.170;7.538;2022-07-29T08:40:32;101206.25;;;19.44;100.00
56420;BME280;42323;52.170;7.538;2022-07-29T08:43:08;101209.34;;;19.41;100.00
56420;BME280;42323;52.170;7.538;2022-07-29T08:45:46;101201.69;;;19.45;100.00
56420;BME280;42323;52.170;7.538;2022-07-29T08:48:18;101187.41;;;19.51;100.00
56420;BME280;42323;52.170;7.538;2022-07-29T08:50:47;101199.88;;;19.52;100.00
56420;BME280;42323;52.170;7.538;2022-07-29T08:53:15;101187.88;;;19.54;100.00
56420;BME280;42323;52.170;7.538;2022-07-29T08:55:46;101187.69;;;19.56;100.00
56420;BME280;42323;52.170;7.538;2022-07-29T08:58:14;101184.38;;;19.61;100.00
56420;BME280;42323;52.170;7.538;2022-07-29T09:00:45;101180.22;;;19.58;100.00
56420;BME280;42323;52.170;7.538;2022-07-29T09:03:15;101163.41;;;19.56;100.00
56420;BME280;42323;52.170;7.538;2022-07-29T09:05:46;101172.13;;;19.58;100.00
56420;BME280;42323;52.170;7.538;2022-07-29T09:08:15;101159.25;;;19.60;100.00
56420;BME280;42323;52.170;7.538;2022-07-29T09:10:43;101154.28;;;19.57;100.00
56420;BME280;42323;52.170;7.538;2022-07-29T09:13:10;101156.34;;;19.55;100.00
56420;BME280;42323;52.170;7.538;2022-07-29T09:15:37;101152.59;;;19.56;100.00
56420;BME280;42323;52.170;7.538;2022-07-29T09:18:04;101156.72;;;19.52;100.00
56420;BME280;42323;52.170;7.538;2022-07-29T09:20:52;101154.28;;;19.57;100.00
56420;BME280;42323;52.170;7.538;2022-07-29T09:23:37;101166.31;;;19.61;100.00
56420;BME280;42323;52.170;7.538;2022-07-29T09:26:07;101162.16;;;19.58;100.00
56420;BME280;42323;52.170;7.538;2022-07-29T09:28:33;101171.72;;;19.61;100.00
56420;BME280;42323;52.170;7.538;2022-07-29T09:31:07;101188.31;;;19.58;100.00
56420;BME280;42323;52.170;7.538;2022-07-29T09:33:35;101197.84;;;19.54;100.00
56420;BME280;42323;52.170;7.538;2022-07-29T09:36:03;101196.50;;;19.43;100.00
56420;BME280;42323;52.170;7.538;2022-07-29T09:38:32;101203.53;;;19.38;100.00
56420;BME280;42323;52.170;7.538;2022-07-29T09:41:01;101217.22;;;19.43;100.00
56420;BME280;42323;52.170;7.538;2022-07-29T09:43:32;101217.22;;;19.43;100.00
56420;BME280;42323;52.170;7.538;2022-07-29T09:46:15;101214.75;;;19.41;100.00
56420;BME280;42323;52.170;7.538;2022-07-29T09:48:42;101210.81;;;19.44;100.00
56420;BME280;42323;52.170;7.538;2022-07-29T09:51:18;101202.97;;;19.49;100.00
56420;BME280;42323;52.170;7.538;2022-07-29T09:53:52;101202.50;;;19.39;100.00
56420;BME280;42323;52.170;7.538;2022-07-29T09:56:19;101202.66;;;19.31;100.00
56420;BME280;42323;52.170;7.538;2022-07-29T09:58:46;101193.25;;;19.20;100.00
56420;BME280;42323;52.170;7.538;2022-07-29T10:01:12;101197.94;;;19.05;100.00
56420;BME280;42323;52.170;7.538;2022-07-29T10:03:53;101211.09;;;18.86;100.00
56420;BME280;42323;52.170;7.538;2022-07-29T10:06:19;101220.66;;;18.67;100.00
56420;BME280;42323;52.170;7.538;2022-07-29T10:08:46;101218.34;;;18.43;100.00
56420;BME280;42323;52.170;7.538;2022-07-29T10:11:17;101216.03;;;18.19;100.00
56420;BME280;42323;52.170;7.538;2022-07-29T10:13:47;101215.28;;;17.89;100.00
56420;BME280;42323;52.170;7.538;2022-07-29T10:16:15;101221.78;;;17.80;100.00
56420;BME280;42323;52.170;7.538;2022-07-29T10:18:43;101236.16;;;17.87;100.00
56420;BME280;42323;52.170;7.538;2022-07-29T10:21:10;101244.06;;;17.88;100.00
56420;BME280;42323;52.170;7.538;2022-07-29T10:23:59;101241.50;;;18.01;100.00
56420;BME280;42323;52.170;7.538;2022-07-29T10:26:27;101244.19;;;18.01;100.00
56420;BME280;42323;52.170;7.538;2022-07-29T10:28:55;101228.69;;;18.03;100.00
56420;BME280;42323;52.170;7.538;2022-07-29T10:42:25;101226.81;;;18.61;100.00
56420;BME280;42323;52.170;7.538;2022-07-29T10:45:00;101222.44;;;18.60;100.00
56420;BME280;42323;52.170;7.538;2022-07-29T10:47:30;101219.63;;;18.69;100.00
56420;BME280;42323;52.170;7.538;2022-07-29T10:50:01;101211.78;;;18.74;100.00
56420;BME280;42323;52.170;7.538;2022-07-29T10:52:52;101216.75;;;18.70;100.00
56420;BME280;42323;52.170;7.538;2022-07-29T10:55:37;101207.88;;;18.76;100.00
56420;BME280;42323;52.170;7.538;2022-07-29T11:00:40;101210.09;;;18.66;100.00
56420;BME280;42323;52.170;7.538;2022-07-29T11:03:43;101214.09;;;18.77;100.00
56420;BME280;42323;52.170;7.538;2022-07-29T11:06:16;101213.22;;;18.70;100.00
56420;BME280;42323;52.170;7.538;2022-07-29T11:09:18;101213.41;;;18.68;100.00
56420;BME280;42323;52.170;7.538;2022-07-29T11:12:01;101206.81;;;18.71;100.00
56420;BME280;42323;52.170;7.538;2022-07-29T11:17:22;101192.09;;;18.73;100.00
56420;BME280;42323;52.170;7.538;2022-07-29T11:19:50;101198.00;;;18.83;100.00
56420;BME280;42323;52.170;7.538;2022-07-29T11:22:35;101200.75;;;18.90;100.00
56420;BME280;42323;52.170;7.538;2022-07-29T11:25:17;101198.69;;;18.92;100.00
56420;BME280;42323;52.170;7.538;2022-07-29T11:28:14;101197.81;;;18.85;100.00
56420;BME280;42323;52.170;7.538;2022-07-29T11:30:53;101208.47;;;18.72;100.00
56420;BME280;42323;52.170;7.538;2022-07-29T11:33:33;101210.28;;;18.64;100.00
56420;BME280;42323;52.170;7.538;2022-07-29T11:36:21;101189.38;;;18.66;100.00
56420;BME280;42323;52.170;7.538;2022-07-29T11:39:25;101202.63;;;18.68;100.00
56420;BME280;42323;52.170;7.538;2022-07-29T11:45:17;101192.69;;;18.69;100.00
56420;BME280;42323;52.170;7.538;2022-07-29T11:48:04;101193.38;;;18.77;100.00
56420;BME280;42323;52.170;7.538;2022-07-29T11:50:52;101194.47;;;18.83;100.00
56420;BME280;42323;52.170;7.538;2022-07-29T11:53:20;101195.75;;;18.87;100.00
56420;BME280;42323;52.170;7.538;2022-07-29T11:55:54;101181.63;;;18.85;100.00
56420;BME280;42323;52.170;7.538;2022-07-29T11:58:24;101193.13;;;19.00;100.00
56420;BME280;42323;52.170;7.538;2022-07-29T12:00:52;101185.25;;;18.98;100.00
56420;BME280;42323;52.170;7.538;2022-07-29T12:03:39;101178.19;;;18.97;100.00
56420;BME280;42323;52.170;7.538;2022-07-29T12:06:13;101188.63;;;19.07;100.00
56420;BME280;42323;52.170;7.538;2022-07-29T12:08:45;101196.13;;;19.12;100.00
56420;BME280;42323;52.170;7.538;2022-07-29T12:11:17;101195.31;;;19.18;100.00
56420;BME280;42323;52.170;7.538;2022-07-29T12:13:48;101183.91;;;19.16;100.00
56420;BME280;42323;52.170;7.538;2022-07-29T12:16:15;101185.78;;;19.15;100.00
56420;BME280;42323;52.170;7.538;2022-07-29T12:18:59;101181.41;;;19.14;100.00
56420;BME280;42323;52.170;7.538;2022-07-29T12:21:42;101182.44;;;19.13;100.00
56420;BME280;42323;52.170;7.538;2022-07-29T12:24:22;101187.03;;;19.19;100.00
56420;BME280;42323;52.170;7.538;2022-07-29T12:26:59;101193.94;;;19.28;100.00
56420;BME280;42323;52.170;7.538;2022-07-29T12:29:28;101198.75;;;19.40;100.00
56420;BME280;42323;52.170;7.538;2022-07-29T12:32:02;101186.09;;;19.40;100.00
56420;BME280;42323;52.170;7.538;2022-07-29T12:34:31;101183.63;;;19.45;100.00
56420;BME280;42323;52.170;7.538;2022-07-29T12:36:59;101185.75;;;19.50;100.00
56420;BME280;42323;52.170;7.538;2022-07-29T12:39:27;101186.78;;;19.49;100.00
56420;BME280;42323;52.170;7.538;2022-07-29T12:41:54;101184.16;;;19.55;100.00
56420;BME280;42323;52.170;7.538;2022-07-29T12:44:47;101191.28;;;19.70;100.00
56420;BME280;42323;52.170;7.538;2022-07-29T12:47:15;101195.44;;;19.79;100.00
56420;BME280;42323;52.170;7.538;2022-07-29T12:49:43;101183.41;;;19.88;100.00
56420;BME280;42323;52.170;7.538;2022-07-29T12:52:29;101183.06;;;19.98;100.00
56420;BME280;42323;52.170;7.538;2022-07-29T12:54:57;101185.53;;;19.99;100.00
56420;BME280;42323;52.170;7.538;2022-07-29T12:57:25;101163.53;;;19.96;100.00
56420;BME280;42323;52.170;7.538;2022-07-29T13:00:22;101166.44;;;20.01;100.00
56420;BME280;42323;52.170;7.538;2022-07-29T13:02:58;101165.19;;;19.97;100.00
56420;BME280;42323;52.170;7.538;2022-07-29T13:05:38;101170.19;;;20.00;100.00
56420;BME280;42323;52.170;7.538;2022-07-29T13:08:15;101169.16;;;20.01;100.00
56420;BME280;42323;52.170;7.538;2022-07-29T13:10:47;101166.03;;;20.04;100.00
56420;BME280;42323;52.170;7.538;2022-07-29T13:13:14;101161.25;;;20.06;100.00
56420;BME280;42323;52.170;7.538;2022-07-29T13:15:45;101170.38;;;20.05;100.00
56420;BME280;42323;52.170;7.538;2022-07-29T13:18:32;101171.00;;;20.07;100.00
56420;BME280;42323;52.170;7.538;2022-07-29T13:21:13;101183.69;;;20.00;100.00
56420;BME280;42323;52.170;7.538;2022-07-29T13:23:42;101177.22;;;19.94;100.00
56420;BME280;42323;52.170;7.538;2022-07-29T13:26:11;101190.09;;;19.92;100.00
56420;BME280;42323;52.170;7.538;2022-07-29T13:28:38;101183.88;;;19.92;100.00
56420;BME280;42323;52.170;7.538;2022-07-29T13:31:09;101186.38;;;19.93;100.00
56420;BME280;42323;52.170;7.538;2022-07-29T13:33:37;101180.50;;;19.83;100.00
56420;BME280;42323;52.170;7.538;2022-07-29T13:36:03;101192.75;;;19.85;100.00